sensor_id;sensor_type;location;lat;lon;timestamp;pressure;altitude;pressure_sealevel;temperature;humidity
9091;BME280;4581;42.416;25.598;2023-04-30T00:02:14;66463.16;;;0.00;nan
9091;BME280;4581;42.416;25.598;2023-04-30T00:04:41;66467.72;;;0.00;nan
9091;BME280;4581;42.416;25.598;2023-04-30T00:07:07;66464.69;;;0.00;nan
9091;BME280;4581;42.416;25.598;2023-04-30T00:09:34;66469.25;;;0.00;nan
9091;BME280;4581;42.416;25.598;2023-04-30T00:12:01;66467.72;;;0.00;nan
9091;BME280;4581;42.416;25.598;2023-04-30T00:14:28;66464.69;;;0.00;nan
9091;BME280;4581;42.416;25.598;2023-04-30T00:16:54;66464.69;;;0.00;nan
9091;BME280;4581;42.416;25.598;2023-04-30T00:19:21;66464.69;;;0.00;nan
9091;BME280;4581;42.416;25.598;2023-04-30T00:21:48;66463.16;;;0.00;nan
9091;BME280;4581;42.416;25.598;2023-04-30T00:24:15;66467.72;;;0.00;nan
9091;BME280;4581;42.416;25.598;2023-04-30T00:26:41;66467.72;;;0.00;nan
9091;BME280;4581;42.416;25.598;2023-04-30T00:29:09;66469.25;;;0.00;nan
9091;BME280;4581;42.416;25.598;2023-04-30T00:31:36;66464.69;;;0.00;nan
9091;BME280;4581;42.416;25.598;2023-04-30T00:34:03;66466.22;;;0.00;nan
9091;BME280;4581;42.416;25.598;2023-04-30T00:36:30;66469.25;;;0.00;nan
9091;BME280;4581;42.416;25.598;2023-04-30T00:38:57;66464.69;;;0.00;nan
9091;BME280;4581;42.416;25.598;2023-04-30T00:41:24;66467.72;;;0.00;nan
9091;BME280;4581;42.416;25.598;2023-04-30T00:43:51;66466.22;;;0.00;nan
9091;BME280;4581;42.416;25.598;2023-04-30T00:46:18;66461.63;;;0.00;nan
9091;BME280;4581;42.416;25.598;2023-04-30T00:48:44;66464.69;;;0.00;nan
9091;BME280;4581;42.416;25.598;2023-04-30T00:51:11;66467.72;;;0.00;nan
9091;BME280;4581;42.416;25.598;2023-04-30T00:53:39;66467.72;;;0.00;nan
9091;BME280;4581;42.416;25.598;2023-04-30T00:56:08;66467.72;;;0.00;nan
9091;BME280;4581;42.416;25.598;2023-04-30T00:58:35;66469.25;;;0.00;nan
9091;BME280;4581;42.416;25.598;2023-04-30T01:01:02;66466.22;;;0.00;nan
9091;BME280;4581;42.416;25.598;2023-04-30T01:03:29;66463.16;;;0.00;nan
9091;BME280;4581;42.416;25.598;2023-04-30T01:05:56;66463.16;;;0.00;nan
9091;BME280;4581;42.416;25.598;2023-04-30T01:08:23;66461.63;;;0.00;nan
9091;BME280;4581;42.416;25.598;2023-04-30T01:11:11;66464.69;;;0.00;nan
9091;BME280;4581;42.416;25.598;2023-04-30T01:16:32;66464.69;;;0.00;nan
9091;BME280;4581;42.416;25.598;2023-04-30T01:19:08;66464.69;;;0.00;nan
9091;BME280;4581;42.416;25.598;2023-04-30T01:21:38;66467.72;;;0.00;nan
9091;BME280;4581;42.416;25.598;2023-04-30T01:29:55;66466.22;;;0.00;nan
9091;BME280;4581;42.416;25.598;2023-04-30T01:32:23;66467.72;;;0.00;nan
9091;BME280;4581;42.416;25.598;2023-04-30T01:34:49;66469.25;;;0.00;nan
9091;BME280;4581;42.416;25.598;2023-04-30T01:37:34;66475.38;;;0.00;nan
9091;BME280;4581;42.416;25.598;2023-04-30T01:40:32;66479.94;;;0.00;nan
9091;BME280;4581;42.416;25.598;2023-04-30T01:43:23;66483.00;;;0.00;nan
9091;BME280;4581;42.416;25.598;2023-04-30T01:53:40;66476.88;;;0.00;nan
9091;BME280;4581;42.416;25.598;2023-04-30T01:56:18;66476.88;;;0.00;nan
9091;BME280;4581;42.416;25.598;2023-04-30T01:58:47;66476.88;;;0.00;nan
9091;BME280;4581;42.416;25.598;2023-04-30T02:01:29;66470.78;;;0.00;nan
9091;BME280;4581;42.416;25.598;2023-04-30T02:03:56;66473.84;;;0.00;nan
9091;BME280;4581;42.416;25.598;2023-04-30T02:06:24;66486.03;;;0.00;nan
9091;BME280;4581;42.416;25.598;2023-04-30T02:08:54;66478.41;;;0.00;nan
9091;BME280;4581;42.416;25.598;2023-04-30T02:11:22;66484.53;;;0.00;nan
9091;BME280;4581;42.416;25.598;2023-04-30T02:13:50;66479.94;;;0.00;nan
9091;BME280;4581;42.416;25.598;2023-04-30T02:16:16;66484.53;;;0.00;nan
9091;BME280;4581;42.416;25.598;2023-04-30T02:18:44;66487.56;;;0.00;nan
9091;BME280;4581;42.416;25.598;2023-04-30T02:21:11;66483.00;;;0.00;nan
9091;BME280;4581;42.416;25.598;2023-04-30T02:23:38;66489.09;;;0.00;nan
9091;BME280;4581;42.416;25.598;2023-04-30T02:26:04;66498.25;;;0.00;nan
9091;BME280;4581;42.416;25.598;2023-04-30T02:28:31;66499.78;;;0.00;nan
9091;BME280;4581;42.416;25.598;2023-04-30T02:30:58;66507.41;;;0.00;nan
9091;BME280;4581;42.416;25.598;2023-04-30T02:33:24;66515.03;;;0.00;nan
9091;BME280;4581;42.416;25.598;2023-04-30T02:35:51;66515.03;;;0.00;nan
9091;BME280;4581;42.416;25.598;2023-04-30T02:38:18;66522.66;;;0.00;nan
9091;BME280;4581;42.416;25.598;2023-04-30T02:40:44;66518.09;;;0.00;nan
9091;BME280;4581;42.416;25.598;2023-04-30T02:43:11;66521.13;;;0.00;nan
9091;BME280;4581;42.416;25.598;2023-04-30T02:45:38;66528.78;;;0.00;nan
9091;BME280;4581;42.416;25.598;2023-04-30T02:48:04;66534.88;;;0.00;nan
9091;BME280;4581;42.416;25.598;2023-04-30T02:50:31;66545.56;;;0.00;nan
9091;BME280;4581;42.416;25.598;2023-04-30T02:52:58;66547.06;;;0.00;nan
9091;BME280;4581;42.416;25.598;2023-04-30T02:55:25;66547.06;;;0.00;nan
9091;BME280;4581;42.416;25.598;2023-04-30T02:57:52;66554.72;;;0.00;nan
9091;BME280;4581;42.416;25.598;2023-04-30T03:00:18;66559.28;;;0.00;nan
9091;BME280;4581;42.416;25.598;2023-04-30T03:02:45;66565.38;;;0.00;nan
9091;BME280;4581;42.416;25.598;2023-04-30T03:05:13;66571.50;;;0.00;nan
9091;BME280;4581;42.416;25.598;2023-04-30T03:07:41;66574.53;;;0.00;nan
9091;BME280;4581;42.416;25.598;2023-04-30T03:10:08;66580.66;;;0.00;nan
9091;BME280;4581;42.416;25.598;2023-04-30T03:12:35;66588.28;;;0.00;nan
9091;BME280;4581;42.416;25.598;2023-04-30T03:15:02;66589.81;;;0.00;nan
9091;BME280;4581;42.416;25.598;2023-04-30T03:17:28;66586.75;;;0.00;nan
9091;BME280;4581;42.416;25.598;2023-04-30T03:19:55;66586.75;;;0.00;nan
9091;BME280;4581;42.416;25.598;2023-04-30T03:22:23;66582.19;;;0.00;nan
9091;BME280;4581;42.416;25.598;2023-04-30T03:24:52;66577.59;;;0.00;nan
9091;BME280;4581;42.416;25.598;2023-04-30T03:27:18;66588.28;;;0.00;nan
9091;BME280;4581;42.416;25.598;2023-04-30T03:29:45;66586.75;;;0.00;nan
9091;BME280;4581;42.416;25.598;2023-04-30T03:32:12;66588.28;;;0.00;nan
9091;BME280;4581;42.416;25.598;2023-04-30T03:34:38;66598.97;;;0.00;nan
9091;BME280;4581;42.416;25.598;2023-04-30T03:37:05;66603.53;;;0.00;nan
9091;BME280;4581;42.416;25.598;2023-04-30T03:39:32;66600.47;;;0.00;nan
9091;BME280;4581;42.416;25.598;2023-04-30T03:41:58;66608.13;;;0.00;nan
9091;BME280;4581;42.416;25.598;2023-04-30T03:44:25;66629.47;;;0.00;nan
9091;BME280;4581;42.416;25.598;2023-04-30T03:46:52;66640.16;;;0.00;nan
9091;BME280;4581;42.416;25.598;2023-04-30T03:49:19;66634.06;;;0.00;nan
9091;BME280;4581;42.416;25.598;2023-04-30T03:51:45;66626.44;;;0.00;nan
9091;BME280;4581;42.416;25.598;2023-04-30T03:54:12;66640.16;;;0.00;nan
9091;BME280;4581;42.416;25.598;2023-04-30T03:56:39;66640.16;;;0.00;nan
9091;BME280;4581;42.416;25.598;2023-04-30T03:59:06;66637.09;;;0.00;nan
9091;BME280;4581;42.416;25.598;2023-04-30T04:01:33;66635.59;;;0.00;nan
9091;BME280;4581;42.416;25.598;2023-04-30T04:04:00;66637.09;;;0.00;nan
9091;BME280;4581;42.416;25.598;2023-04-30T04:06:27;66637.09;;;0.00;nan
9091;BME280;4581;42.416;25.598;2023-04-30T04:08:53;66626.44;;;0.00;nan
9091;BME280;4581;42.416;25.598;2023-04-30T04:11:20;66621.84;;;0.00;nan
9091;BME280;4581;42.416;25.598;2023-04-30T04:13:47;66615.75;;;0.00;nan
9091;BME280;4581;42.416;25.598;2023-04-30T04:16:14;66609.63;;;0.00;nan
9091;BME280;4581;42.416;25.598;2023-04-30T04:18:41;66611.16;;;0.00;nan
9091;BME280;4581;42.416;25.598;2023-04-30T04:21:08;66605.06;;;0.00;nan
9091;BME280;4581;42.416;25.598;2023-04-30T04:23:34;66600.47;;;0.00;nan
9091;BME280;4581;42.416;25.598;2023-04-30T04:26:01;66595.91;;;0.00;nan
9091;BME280;4581;42.416;25.598;2023-04-30T04:28:28;66591.31;;;0.00;nan
9091;BME280;4581;42.416;25.598;2023-04-30T04:30:55;66586.75;;;0.00;nan
9091;BME280;4581;42.416;25.598;2023-04-30T04:33:22;66591.31;;;0.00;nan
9091;BME280;4581;42.416;25.598;2023-04-30T04:35:48;66582.19;;;0.00;nan
9091;BME280;4581;42.416;25.598;2023-04-30T04:38:15;66585.22;;;0.00;nan
9091;BME280;4581;42.416;25.598;2023-04-30T04:40:50;66608.13;;;0.00;nan
9091;BME280;4581;42.416;25.598;2023-04-30T04:43:17;66629.47;;;0.00;nan
9091;BME280;4581;42.416;25.598;2023-04-30T04:45:44;66652.38;;;0.00;nan
9091;BME280;4581;42.416;25.598;2023-04-30T04:48:11;66643.22;;;0.00;nan
9091;BME280;4581;42.416;25.598;2023-04-30T04:50:37;66649.31;;;0.00;nan
9091;BME280;4581;42.416;25.598;2023-04-30T04:53:04;66644.72;;;0.00;nan
9091;BME280;4581;42.416;25.598;2023-04-30T04:55:31;66646.25;;;0.00;nan
9091;BME280;4581;42.416;25.598;2023-04-30T04:57:58;66637.09;;;0.00;nan
9091;BME280;4581;42.416;25.598;2023-04-30T05:00:25;66626.44;;;0.00;nan
9091;BME280;4581;42.416;25.598;2023-04-30T05:02:52;66624.91;;;0.00;nan
9091;BME280;4581;42.416;25.598;2023-04-30T05:05:19;66626.44;;;0.00;nan
9091;BME280;4581;42.416;25.598;2023-04-30T05:07:45;66618.78;;;0.00;nan
9091;BME280;4581;42.416;25.598;2023-04-30T05:10:12;66617.28;;;0.00;nan
9091;BME280;4581;42.416;25.598;2023-04-30T05:12:39;66609.63;;;0.00;nan
9091;BME280;4581;42.416;25.598;2023-04-30T05:15:06;66598.97;;;0.00;nan
9091;BME280;4581;42.416;25.598;2023-04-30T05:17:33;66595.91;;;0.00;nan
9091;BME280;4581;42.416;25.598;2023-04-30T05:20:00;66602.00;;;0.00;nan
9091;BME280;4581;42.416;25.598;2023-04-30T05:22:27;66595.91;;;0.00;nan
9091;BME280;4581;42.416;25.598;2023-04-30T05:24:53;66589.81;;;0.00;nan
9091;BME280;4581;42.416;25.598;2023-04-30T05:27:21;66577.59;;;0.00;nan
9091;BME280;4581;42.416;25.598;2023-04-30T05:29:47;66563.88;;;0.00;nan
9091;BME280;4581;42.416;25.598;2023-04-30T05:32:14;66537.91;;;0.00;nan
9091;BME280;4581;42.416;25.598;2023-04-30T05:34:41;66516.56;;;0.00;nan
9091;BME280;4581;42.416;25.598;2023-04-30T05:37:08;66481.47;;;0.00;nan
9091;BME280;4581;42.416;25.598;2023-04-30T05:39:34;66429.59;;;0.00;nan
9091;BME280;4581;42.416;25.598;2023-04-30T05:42:01;66412.81;;;0.00;nan
9091;BME280;4581;42.416;25.598;2023-04-30T05:44:28;66344.13;;;0.00;nan
9091;BME280;4581;42.416;25.598;2023-04-30T05:46:57;66295.31;;;0.00;nan
9091;BME280;4581;42.416;25.598;2023-04-30T05:49:25;66290.72;;;0.00;nan
9091;BME280;4581;42.416;25.598;2023-04-30T05:51:52;66251.06;;;0.00;nan
9091;BME280;4581;42.416;25.598;2023-04-30T05:54:19;66238.84;;;0.00;nan
9091;BME280;4581;42.416;25.598;2023-04-30T05:56:45;66264.78;;;0.00;nan
9091;BME280;4581;42.416;25.598;2023-04-30T05:59:12;66289.19;;;0.00;nan
9091;BME280;4581;42.416;25.598;2023-04-30T06:01:39;66235.78;;;0.00;nan
9091;BME280;4581;42.416;25.598;2023-04-30T06:04:07;66168.66;;;0.00;nan
9091;BME280;4581;42.416;25.598;2023-04-30T06:06:34;66180.88;;;0.00;nan
9091;BME280;4581;42.416;25.598;2023-04-30T06:09:01;66136.63;;;0.00;nan
9091;BME280;4581;42.416;25.598;2023-04-30T06:11:29;66101.53;;;0.00;nan
9091;BME280;4581;42.416;25.598;2023-04-30T06:13:57;66064.91;;;0.00;nan
9091;BME280;4581;42.416;25.598;2023-04-30T06:16:24;66090.84;;;0.00;nan
9091;BME280;4581;42.416;25.598;2023-04-30T06:18:50;66042.00;;;0.00;nan
9091;BME280;4581;42.416;25.598;2023-04-30T06:21:19;66101.53;;;0.00;nan
9091;BME280;4581;42.416;25.598;2023-04-30T06:23:46;66077.09;;;0.00;nan
9091;BME280;4581;42.416;25.598;2023-04-30T06:26:12;66092.38;;;0.00;nan
9091;BME280;4581;42.416;25.598;2023-04-30T06:28:41;66141.19;;;0.00;nan
9091;BME280;4581;42.416;25.598;2023-04-30T06:31:08;66139.66;;;0.00;nan
9091;BME280;4581;42.416;25.598;2023-04-30T06:33:35;66130.50;;;0.00;nan
9091;BME280;4581;42.416;25.598;2023-04-30T06:36:02;66086.25;;;0.00;nan
9091;BME280;4581;42.416;25.598;2023-04-30T06:38:28;66055.75;;;0.00;nan
9091;BME280;4581;42.416;25.598;2023-04-30T06:40:55;66066.44;;;0.00;nan
9091;BME280;4581;42.416;25.598;2023-04-30T06:43:23;66098.47;;;0.00;nan
9091;BME280;4581;42.416;25.598;2023-04-30T06:45:49;66104.56;;;0.00;nan
9091;BME280;4581;42.416;25.598;2023-04-30T06:48:16;66077.09;;;0.00;nan
9091;BME280;4581;42.416;25.598;2023-04-30T06:50:43;66081.69;;;0.00;nan
9091;BME280;4581;42.416;25.598;2023-04-30T06:53:11;66089.31;;;0.00;nan
9091;BME280;4581;42.416;25.598;2023-04-30T06:55:37;66107.63;;;0.00;nan
9091;BME280;4581;42.416;25.598;2023-04-30T06:58:04;66072.53;;;0.00;nan
9091;BME280;4581;42.416;25.598;2023-04-30T07:00:31;66028.28;;;0.00;nan
9091;BME280;4581;42.416;25.598;2023-04-30T07:02:58;66038.97;;;0.00;nan
9091;BME280;4581;42.416;25.598;2023-04-30T07:05:29;66057.28;;;0.00;nan
9091;BME280;4581;42.416;25.598;2023-04-30T07:07:57;65994.72;;;0.00;nan
9091;BME280;4581;42.416;25.598;2023-04-30T07:10:24;65929.09;;;0.00;nan
9091;BME280;4581;42.416;25.598;2023-04-30T07:12:51;65894.00;;;0.00;nan
9091;BME280;4581;42.416;25.598;2023-04-30T07:15:18;65889.41;;;0.00;nan
9091;BME280;4581;42.416;25.598;2023-04-30T07:17:45;65909.25;;;0.00;nan
9091;BME280;4581;42.416;25.598;2023-04-30T07:20:12;65988.59;;;0.00;nan
9091;BME280;4581;42.416;25.598;2023-04-30T07:22:42;65923.00;;;0.00;nan
9091;BME280;4581;42.416;25.598;2023-04-30T07:25:12;65898.56;;;0.00;nan
9091;BME280;4581;42.416;25.598;2023-04-30T07:27:39;65890.94;;;0.00;nan
9091;BME280;4581;42.416;25.598;2023-04-30T07:30:07;65869.59;;;0.00;nan
9091;BME280;4581;42.416;25.598;2023-04-30T07:32:37;65848.22;;;0.00;nan
9091;BME280;4581;42.416;25.598;2023-04-30T07:35:06;65820.75;;;0.00;nan
9091;BME280;4581;42.416;25.598;2023-04-30T07:37:33;65832.97;;;0.00;nan
9091;BME280;4581;42.416;25.598;2023-04-30T07:40:01;65805.50;;;0.00;nan
9091;BME280;4581;42.416;25.598;2023-04-30T07:42:28;65808.56;;;0.00;nan
9091;BME280;4581;42.416;25.598;2023-04-30T07:44:55;65819.22;;;0.00;nan
9091;BME280;4581;42.416;25.598;2023-04-30T07:47:22;65826.84;;;0.00;nan
9091;BME280;4581;42.416;25.598;2023-04-30T07:49:50;65796.34;;;0.00;nan
9091;BME280;4581;42.416;25.598;2023-04-30T07:52:17;65785.66;;;0.00;nan
9091;BME280;4581;42.416;25.598;2023-04-30T07:54:44;65797.88;;;0.00;nan
9091;BME280;4581;42.416;25.598;2023-04-30T07:57:10;65796.34;;;0.00;nan
9091;BME280;4581;42.416;25.598;2023-04-30T07:59:38;65767.34;;;0.00;nan
9091;BME280;4581;42.416;25.598;2023-04-30T08:02:06;65768.88;;;0.00;nan
9091;BME280;4581;42.416;25.598;2023-04-30T08:04:33;65805.50;;;0.00;nan
9091;BME280;4581;42.416;25.598;2023-04-30T08:07:00;65793.28;;;0.00;nan
9091;BME280;4581;42.416;25.598;2023-04-30T08:09:27;65793.28;;;0.00;nan
9091;BME280;4581;42.416;25.598;2023-04-30T08:11:54;65764.28;;;0.00;nan
9091;BME280;4581;42.416;25.598;2023-04-30T08:14:21;65744.47;;;0.00;nan
9091;BME280;4581;42.416;25.598;2023-04-30T08:16:47;65735.31;;;0.00;nan
9091;BME280;4581;42.416;25.598;2023-04-30T08:19:14;65726.16;;;0.00;nan
9091;BME280;4581;42.416;25.598;2023-04-30T08:21:41;65717.00;;;0.00;nan
9091;BME280;4581;42.416;25.598;2023-04-30T08:24:08;65724.63;;;0.00;nan
9091;BME280;4581;42.416;25.598;2023-04-30T08:26:34;65718.53;;;0.00;nan
9091;BME280;4581;42.416;25.598;2023-04-30T08:29:01;65710.88;;;0.00;nan
9091;BME280;4581;42.416;25.598;2023-04-30T08:31:28;65704.78;;;0.00;nan
9091;BME280;4581;42.416;25.598;2023-04-30T08:33:54;65762.78;;;0.00;nan
9091;BME280;4581;42.416;25.598;2023-04-30T08:36:21;65820.75;;;0.00;nan
9091;BME280;4581;42.416;25.598;2023-04-30T08:38:48;65794.81;;;0.00;nan
9091;BME280;4581;42.416;25.598;2023-04-30T08:41:15;65778.03;;;0.00;nan
9091;BME280;4581;42.416;25.598;2023-04-30T08:43:42;65741.41;;;0.00;nan
9091;BME280;4581;42.416;25.598;2023-04-30T08:46:11;65717.00;;;0.00;nan
9091;BME280;4581;42.416;25.598;2023-04-30T08:48:43;65723.09;;;0.00;nan
9091;BME280;4581;42.416;25.598;2023-04-30T08:51:10;65732.25;;;0.00;nan
9091;BME280;4581;42.416;25.598;2023-04-30T08:53:36;65746.00;;;0.00;nan
9091;BME280;4581;42.416;25.598;2023-04-30T08:56:09;65735.31;;;0.00;nan
9091;BME280;4581;42.416;25.598;2023-04-30T08:58:36;65712.41;;;0.00;nan
9091;BME280;4581;42.416;25.598;2023-04-30T09:01:05;65717.00;;;0.00;nan
9091;BME280;4581;42.416;25.598;2023-04-30T09:03:33;65701.75;;;0.00;nan
9091;BME280;4581;42.416;25.598;2023-04-30T09:06:00;65700.22;;;0.00;nan
9091;BME280;4581;42.416;25.598;2023-04-30T09:08:47;65718.53;;;0.00;nan
9091;BME280;4581;42.416;25.598;2023-04-30T09:11:24;65704.78;;;0.00;nan
9091;BME280;4581;42.416;25.598;2023-04-30T09:13:59;65668.16;;;0.00;nan
9091;BME280;4581;42.416;25.598;2023-04-30T09:16:29;65672.75;;;0.00;nan
9091;BME280;4581;42.416;25.598;2023-04-30T09:18:57;65655.97;;;0.00;nan
9091;BME280;4581;42.416;25.598;2023-04-30T09:21:50;65633.06;;;0.00;nan
9091;BME280;4581;42.416;25.598;2023-04-30T09:24:17;65643.75;;;0.00;nan
9091;BME280;4581;42.416;25.598;2023-04-30T09:26:45;65649.84;;;0.00;nan
9091;BME280;4581;42.416;25.598;2023-04-30T09:29:15;65633.06;;;0.00;nan
9091;BME280;4581;42.416;25.598;2023-04-30T09:31:43;65640.69;;;0.00;nan
9091;BME280;4581;42.416;25.598;2023-04-30T09:34:12;65710.88;;;0.00;nan
9091;BME280;4581;42.416;25.598;2023-04-30T09:36:54;65735.31;;;0.00;nan
9091;BME280;4581;42.416;25.598;2023-04-30T09:39:21;65750.56;;;0.00;nan
9091;BME280;4581;42.416;25.598;2023-04-30T09:41:49;65765.81;;;0.00;nan
9091;BME280;4581;42.416;25.598;2023-04-30T09:44:27;65735.31;;;0.00;nan
9091;BME280;4581;42.416;25.598;2023-04-30T09:46:56;65735.31;;;0.00;nan
9091;BME280;4581;42.416;25.598;2023-04-30T09:49:23;65733.78;;;0.00;nan
9091;BME280;4581;42.416;25.598;2023-04-30T09:51:59;65729.19;;;0.00;nan
9091;BME280;4581;42.416;25.598;2023-04-30T09:54:28;65712.41;;;0.00;nan
9091;BME280;4581;42.416;25.598;2023-04-30T09:56:57;65749.03;;;0.00;nan
9091;BME280;4581;42.416;25.598;2023-04-30T09:59:29;65735.31;;;0.00;nan
9091;BME280;4581;42.416;25.598;2023-04-30T10:02:04;65695.63;;;0.00;nan
9091;BME280;4581;42.416;25.598;2023-04-30T10:04:36;65713.94;;;0.00;nan
9091;BME280;4581;42.416;25.598;2023-04-30T10:07:15;65750.56;;;0.00;nan
9091;BME280;4581;42.416;25.598;2023-04-30T10:09:56;65749.03;;;0.00;nan
9091;BME280;4581;42.416;25.598;2023-04-30T10:15:19;65733.78;;;0.00;nan
9091;BME280;4581;42.416;25.598;2023-04-30T10:17:49;65767.34;;;0.00;nan
9091;BME280;4581;42.416;25.598;2023-04-30T10:20:19;65788.72;;;0.00;nan
9091;BME280;4581;42.416;25.598;2023-04-30T10:22:47;65808.56;;;0.00;nan
9091;BME280;4581;42.416;25.598;2023-04-30T10:25:15;65807.03;;;0.00;nan
9091;BME280;4581;42.416;25.598;2023-04-30T10:27:42;65816.19;;;0.00;nan
9091;BME280;4581;42.416;25.598;2023-04-30T10:30:09;65829.91;;;0.00;nan
9091;BME280;4581;42.416;25.598;2023-04-30T10:32:52;65829.91;;;0.00;nan
9091;BME280;4581;42.416;25.598;2023-04-30T10:35:29;65842.13;;;0.00;nan
9091;BME280;4581;42.416;25.598;2023-04-30T10:38:05;65822.28;;;0.00;nan
9091;BME280;4581;42.416;25.598;2023-04-30T10:40:35;65811.59;;;0.00;nan
9091;BME280;4581;42.416;25.598;2023-04-30T10:43:02;65799.41;;;0.00;nan
9091;BME280;4581;42.416;25.598;2023-04-30T10:45:37;65774.97;;;0.00;nan
9091;BME280;4581;42.416;25.598;2023-04-30T10:48:05;65781.09;;;0.00;nan
9091;BME280;4581;42.416;25.598;2023-04-30T10:50:39;65782.59;;;0.00;nan
9091;BME280;4581;42.416;25.598;2023-04-30T10:53:12;65823.81;;;0.00;nan
9091;BME280;4581;42.416;25.598;2023-04-30T10:55:46;65823.81;;;0.00;nan
9091;BME280;4581;42.416;25.598;2023-04-30T10:58:35;65825.34;;;0.00;nan
9091;BME280;4581;42.416;25.598;2023-04-30T11:01:08;65839.06;;;0.00;nan
9091;BME280;4581;42.416;25.598;2023-04-30T11:03:39;65883.31;;;0.00;nan
9091;BME280;4581;42.416;25.598;2023-04-30T11:06:12;65898.56;;;0.00;nan
9091;BME280;4581;42.416;25.598;2023-04-30T11:08:44;65910.78;;;0.00;nan
9091;BME280;4581;42.416;25.598;2023-04-30T11:11:16;65909.25;;;0.00;nan
9091;BME280;4581;42.416;25.598;2023-04-30T11:13:44;65909.25;;;0.00;nan
9091;BME280;4581;42.416;25.598;2023-04-30T11:16:11;65919.94;;;0.00;nan
9091;BME280;4581;42.416;25.598;2023-04-30T11:18:45;65906.22;;;0.00;nan
9091;BME280;4581;42.416;25.598;2023-04-30T11:21:12;65912.31;;;0.00;nan
9091;BME280;4581;42.416;25.598;2023-04-30T11:23:40;65915.38;;;0.00;nan
9091;BME280;4581;42.416;25.598;2023-04-30T11:26:09;65923.00;;;0.00;nan
9091;BME280;4581;42.416;25.598;2023-04-30T11:28:36;65927.56;;;0.00;nan
9091;BME280;4581;42.416;25.598;2023-04-30T11:31:03;65912.31;;;0.00;nan
9091;BME280;4581;42.416;25.598;2023-04-30T11:33:32;65909.25;;;0.00;nan
9091;BME280;4581;42.416;25.598;2023-04-30T11:36:00;65892.47;;;0.00;nan
9091;BME280;4581;42.416;25.598;2023-04-30T11:38:29;65836.00;;;0.00;nan
9091;BME280;4581;42.416;25.598;2023-04-30T11:40:57;65762.78;;;0.00;nan
9091;BME280;4581;42.416;25.598;2023-04-30T11:43:28;65717.00;;;0.00;nan
9091;BME280;4581;42.416;25.598;2023-04-30T11:46:03;65674.28;;;0.00;nan
9091;BME280;4581;42.416;25.598;2023-04-30T11:48:33;65665.13;;;0.00;nan
9091;BME280;4581;42.416;25.598;2023-04-30T11:51:13;65723.09;;;0.00;nan
9091;BME280;4581;42.416;25.598;2023-04-30T11:53:40;65796.34;;;0.00;nan
9091;BME280;4581;42.416;25.598;2023-04-30T11:56:07;65839.06;;;0.00;nan
9091;BME280;4581;42.416;25.598;2023-04-30T11:58:35;65855.84;;;0.00;nan
9091;BME280;4581;42.416;25.598;2023-04-30T12:01:05;65836.00;;;0.00;nan
9091;BME280;4581;42.416;25.598;2023-04-30T12:03:39;65774.97;;;0.00;nan
9091;BME280;4581;42.416;25.598;2023-04-30T12:06:09;65717.00;;;0.00;nan
9091;BME280;4581;42.416;25.598;2023-04-30T12:08:36;65692.59;;;0.00;nan
9091;BME280;4581;42.416;25.598;2023-04-30T12:11:03;65694.09;;;0.00;nan
9091;BME280;4581;42.416;25.598;2023-04-30T12:13:33;65707.84;;;0.00;nan
9091;BME280;4581;42.416;25.598;2023-04-30T12:16:00;65736.84;;;0.00;nan
9091;BME280;4581;42.416;25.598;2023-04-30T12:18:27;65735.31;;;0.00;nan
9091;BME280;4581;42.416;25.598;2023-04-30T12:20:53;65770.41;;;0.00;nan
9091;BME280;4581;42.416;25.598;2023-04-30T12:23:20;65768.88;;;0.00;nan
9091;BME280;4581;42.416;25.598;2023-04-30T12:25:47;65791.75;;;0.00;nan
9091;BME280;4581;42.416;25.598;2023-04-30T12:28:14;65816.19;;;0.00;nan
9091;BME280;4581;42.416;25.598;2023-04-30T12:30:41;65825.34;;;0.00;nan
9091;BME280;4581;42.416;25.598;2023-04-30T12:33:09;65836.00;;;0.00;nan
9091;BME280;4581;42.416;25.598;2023-04-30T12:35:41;65854.31;;;0.00;nan
9091;BME280;4581;42.416;25.598;2023-04-30T12:38:09;65842.13;;;0.00;nan
9091;BME280;4581;42.416;25.598;2023-04-30T12:40:36;65823.81;;;0.00;nan
9091;BME280;4581;42.416;25.598;2023-04-30T12:43:04;65813.13;;;0.00;nan
9091;BME280;4581;42.416;25.598;2023-04-30T12:46:01;65808.56;;;0.00;nan
9091;BME280;4581;42.416;25.598;2023-04-30T12:48:28;65793.28;;;0.00;nan
9091;BME280;4581;42.416;25.598;2023-04-30T12:50:59;65765.81;;;0.00;nan
9091;BME280;4581;42.416;25.598;2023-04-30T12:53:27;65747.50;;;0.00;nan
9091;BME280;4581;42.416;25.598;2023-04-30T12:58:42;65767.34;;;0.00;nan
9091;BME280;4581;42.416;25.598;2023-04-30T13:01:11;65774.97;;;0.00;nan
9091;BME280;4581;42.416;25.598;2023-04-30T13:03:38;65781.09;;;0.00;nan
9091;BME280;4581;42.416;25.598;2023-04-30T13:06:05;65814.66;;;0.00;nan
9091;BME280;4581;42.416;25.598;2023-04-30T13:08:32;65822.28;;;0.00;nan
9091;BME280;4581;42.416;25.598;2023-04-30T13:11:11;65839.06;;;0.00;nan
9091;BME280;4581;42.416;25.598;2023-04-30T13:13:38;65846.69;;;0.00;nan
9091;BME280;4581;42.416;25.598;2023-04-30T13:16:05;65842.13;;;0.00;nan
9091;BME280;4581;42.416;25.598;2023-04-30T13:18:32;65840.59;;;0.00;nan
9091;BME280;4581;42.416;25.598;2023-04-30T13:20:58;65839.06;;;0.00;nan
9091;BME280;4581;42.416;25.598;2023-04-30T13:23:25;65839.06;;;0.00;nan
9091;BME280;4581;42.416;25.598;2023-04-30T13:25:52;65843.66;;;0.00;nan
9091;BME280;4581;42.416;25.598;2023-04-30T13:28:18;65840.59;;;0.00;nan
9091;BME280;4581;42.416;25.598;2023-04-30T13:30:45;65855.84;;;0.00;nan
9091;BME280;4581;42.416;25.598;2023-04-30T13:33:12;65860.44;;;0.00;nan
9091;BME280;4581;42.416;25.598;2023-04-30T13:35:38;65858.91;;;0.00;nan
9091;BME280;4581;42.416;25.598;2023-04-30T13:38:05;65857.38;;;0.00;nan
9091;BME280;4581;42.416;25.598;2023-04-30T13:40:32;65829.91;;;0.00;nan
9091;BME280;4581;42.416;25.598;2023-04-30T13:42:59;65822.28;;;0.00;nan
9091;BME280;4581;42.416;25.598;2023-04-30T13:45:25;65832.97;;;0.00;nan
9091;BME280;4581;42.416;25.598;2023-04-30T13:47:52;65826.84;;;0.00;nan
9091;BME280;4581;42.416;25.598;2023-04-30T13:50:19;65839.06;;;0.00;nan
9091;BME280;4581;42.416;25.598;2023-04-30T13:52:46;65860.44;;;0.00;nan
9091;BME280;4581;42.416;25.598;2023-04-30T13:55:12;65866.53;;;0.00;nan
9091;BME280;4581;42.416;25.598;2023-04-30T13:57:39;65846.69;;;0.00;nan
9091;BME280;4581;42.416;25.598;2023-04-30T14:00:06;65832.97;;;0.00;nan
9091;BME280;4581;42.416;25.598;2023-04-30T14:02:34;65845.16;;;0.00;nan
9091;BME280;4581;42.416;25.598;2023-04-30T14:05:02;65834.50;;;0.00;nan
9091;BME280;4581;42.416;25.598;2023-04-30T14:07:32;65832.97;;;0.00;nan
9091;BME280;4581;42.416;25.598;2023-04-30T14:09:59;65858.91;;;0.00;nan
9091;BME280;4581;42.416;25.598;2023-04-30T14:12:25;65875.69;;;0.00;nan
9091;BME280;4581;42.416;25.598;2023-04-30T14:14:52;65858.91;;;0.00;nan